sensor_id;sensor_type;location;lat;lon;timestamp;P1;durP1;ratioP1;P2;durP2;ratioP2
57858;SDS011;49153;45.568;11.894;2022-09-09T00:04:40;5.28;;;3.70;;
57858;SDS011;49153;45.568;11.894;2022-09-09T00:07:16;5.70;;;3.63;;
57858;SDS011;49153;45.568;11.894;2022-09-09T00:09:47;7.32;;;3.53;;
57858;SDS011;49153;45.568;11.894;2022-09-09T00:12:47;7.50;;;3.78;;
57858;SDS011;49153;45.568;11.894;2022-09-09T00:15:16;7.30;;;3.88;;
57858;SDS011;49153;45.568;11.894;2022-09-09T00:20:32;4.47;;;3.47;;
57858;SDS011;49153;45.568;11.894;2022-09-09T00:23:12;7.20;;;4.18;;
57858;SDS011;49153;45.568;11.894;2022-09-09T00:25:54;5.43;;;3.33;;
57858;SDS011;49153;45.568;11.894;2022-09-09T00:28:28;6.07;;;4.50;;
57858;SDS011;49153;45.568;11.894;2022-09-09T00:30:59;5.22;;;3.78;;
57858;SDS011;49153;45.568;11.894;2022-09-09T00:33:33;6.28;;;3.95;;
57858;SDS011;49153;45.568;11.894;2022-09-09T00:36:00;6.85;;;4.55;;
57858;SDS011;49153;45.568;11.894;2022-09-09T00:43:56;5.43;;;4.25;;
57858;SDS011;49153;45.568;11.894;2022-09-09T00:57:26;7.78;;;4.82;;
57858;SDS011;49153;45.568;11.894;2022-09-09T01:09:01;7.30;;;4.25;;
57858;SDS011;49153;45.568;11.894;2022-09-09T01:14:24;7.55;;;4.63;;
57858;SDS011;49153;45.568;11.894;2022-09-09T01:17:11;6.47;;;4.55;;
57858;SDS011;49153;45.568;11.894;2022-09-09T01:22:37;6.32;;;4.38;;
57858;SDS011;49153;45.568;11.894;2022-09-09T01:27:57;6.28;;;5.20;;
57858;SDS011;49153;45.568;11.894;2022-09-09T01:30:25;7.00;;;4.65;;
57858;SDS011;49153;45.568;11.894;2022-09-09T01:32:54;8.18;;;4.82;;
57858;SDS011;49153;45.568;11.894;2022-09-09T01:38:09;5.80;;;4.70;;
57858;SDS011;49153;45.568;11.894;2022-09-09T01:40:35;6.97;;;4.65;;
57858;SDS011;49153;45.568;11.894;2022-09-09T01:43:01;6.82;;;4.82;;
57858;SDS011;49153;45.568;11.894;2022-09-09T01:45:28;5.72;;;4.47;;
57858;SDS011;49153;45.568;11.894;2022-09-09T01:47:53;7.63;;;4.80;;
57858;SDS011;49153;45.568;11.894;2022-09-09T01:50:20;7.25;;;4.60;;
57858;SDS011;49153;45.568;11.894;2022-09-09T01:52:46;7.28;;;4.53;;
57858;SDS011;49153;45.568;11.894;2022-09-09T01:55:15;8.23;;;4.68;;
57858;SDS011;49153;45.568;11.894;2022-09-09T01:57:44;7.30;;;4.78;;
57858;SDS011;49153;45.568;11.894;2022-09-09T02:00:21;5.53;;;4.32;;
57858;SDS011;49153;45.568;11.894;2022-09-09T02:05:37;7.53;;;4.55;;
57858;SDS011;49153;45.568;11.894;2022-09-09T02:08:56;6.90;;;4.60;;
57858;SDS011;49153;45.568;11.894;2022-09-09T02:11:13;6.72;;;4.20;;
57858;SDS011;49153;45.568;11.894;2022-09-09T02:13:40;7.88;;;4.45;;
57858;SDS011;49153;45.568;11.894;2022-09-09T02:16:08;7.15;;;4.65;;
57858;SDS011;49153;45.568;11.894;2022-09-09T02:18:57;5.18;;;4.13;;
57858;SDS011;49153;45.568;11.894;2022-09-09T02:21:38;5.60;;;3.97;;
57858;SDS011;49153;45.568;11.894;2022-09-09T02:24:07;7.25;;;4.15;;
57858;SDS011;49153;45.568;11.894;2022-09-09T02:26:36;7.15;;;4.50;;
57858;SDS011;49153;45.568;11.894;2022-09-09T02:29:07;6.72;;;4.65;;
57858;SDS011;49153;45.568;11.894;2022-09-09T02:34:02;7.88;;;4.00;;
57858;SDS011;49153;45.568;11.894;2022-09-09T02:36:31;6.93;;;4.20;;
57858;SDS011;49153;45.568;11.894;2022-09-09T02:38:58;7.32;;;3.83;;
57858;SDS011;49153;45.568;11.894;2022-09-09T02:41:35;6.32;;;4.05;;
57858;SDS011;49153;45.568;11.894;2022-09-09T02:44:05;5.13;;;3.53;;
57858;SDS011;49153;45.568;11.894;2022-09-09T02:49:14;6.10;;;3.65;;
57858;SDS011;49153;45.568;11.894;2022-09-09T02:54:31;4.85;;;3.47;;
57858;SDS011;49153;45.568;11.894;2022-09-09T02:57:02;3.95;;;3.17;;
57858;SDS011;49153;45.568;11.894;2022-09-09T02:59:34;7.05;;;3.15;;
57858;SDS011;49153;45.568;11.894;2022-09-09T03:01:59;4.05;;;3.22;;
57858;SDS011;49153;45.568;11.894;2022-09-09T03:04:26;5.38;;;3.00;;
57858;SDS011;49153;45.568;11.894;2022-09-09T03:06:51;4.78;;;2.80;;
57858;SDS011;49153;45.568;11.894;2022-09-09T03:09:16;3.53;;;3.15;;
57858;SDS011;49153;45.568;11.894;2022-09-09T03:11:42;6.85;;;3.05;;
57858;SDS011;49153;45.568;11.894;2022-09-09T03:14:07;6.03;;;3.15;;
57858;SDS011;49153;45.568;11.894;2022-09-09T03:16:33;7.15;;;3.40;;
57858;SDS011;49153;45.568;11.894;2022-09-09T03:19:00;4.80;;;2.78;;
57858;SDS011;49153;45.568;11.894;2022-09-09T03:21:26;5.82;;;2.70;;
57858;SDS011;49153;45.568;11.894;2022-09-09T03:23:51;3.72;;;2.55;;
57858;SDS011;49153;45.568;11.894;2022-09-09T03:26:17;4.35;;;2.70;;
57858;SDS011;49153;45.568;11.894;2022-09-09T03:28:42;6.18;;;2.58;;
57858;SDS011;49153;45.568;11.894;2022-09-09T03:31:08;4.53;;;2.58;;
57858;SDS011;49153;45.568;11.894;2022-09-09T03:33:35;4.57;;;2.60;;
57858;SDS011;49153;45.568;11.894;2022-09-09T03:36:02;4.85;;;2.53;;
57858;SDS011;49153;45.568;11.894;2022-09-09T03:38:27;3.17;;;2.60;;
57858;SDS011;49153;45.568;11.894;2022-09-09T03:40:54;3.78;;;2.97;;
57858;SDS011;49153;45.568;11.894;2022-09-09T03:43:22;5.55;;;2.78;;
57858;SDS011;49153;45.568;11.894;2022-09-09T03:45:49;5.15;;;2.40;;
57858;SDS011;49153;45.568;11.894;2022-09-09T03:48:15;3.70;;;2.22;;
57858;SDS011;49153;45.568;11.894;2022-09-09T03:50:45;5.20;;;2.85;;
57858;SDS011;49153;45.568;11.894;2022-09-09T03:53:11;4.97;;;2.22;;
57858;SDS011;49153;45.568;11.894;2022-09-09T03:55:37;4.55;;;2.35;;
57858;SDS011;49153;45.568;11.894;2022-09-09T03:58:02;4.82;;;2.33;;
57858;SDS011;49153;45.568;11.894;2022-09-09T04:00:27;5.78;;;2.22;;
57858;SDS011;49153;45.568;11.894;2022-09-09T04:02:54;4.72;;;2.67;;
57858;SDS011;49153;45.568;11.894;2022-09-09T04:05:20;5.82;;;2.40;;
57858;SDS011;49153;45.568;11.894;2022-09-09T04:07:46;3.92;;;2.38;;
57858;SDS011;49153;45.568;11.894;2022-09-09T04:10:12;4.40;;;2.28;;
57858;SDS011;49153;45.568;11.894;2022-09-09T04:12:38;4.93;;;2.63;;
57858;SDS011;49153;45.568;11.894;2022-09-09T04:15:03;3.55;;;2.63;;
57858;SDS011;49153;45.568;11.894;2022-09-09T04:17:29;5.90;;;2.58;;
57858;SDS011;49153;45.568;11.894;2022-09-09T04:19:55;3.13;;;2.50;;
57858;SDS011;49153;45.568;11.894;2022-09-09T04:22:22;4.55;;;2.42;;
57858;SDS011;49153;45.568;11.894;2022-09-09T04:24:47;5.22;;;2.58;;
57858;SDS011;49153;45.568;11.894;2022-09-09T04:27:12;4.85;;;2.60;;
57858;SDS011;49153;45.568;11.894;2022-09-09T04:29:38;4.43;;;2.63;;
57858;SDS011;49153;45.568;11.894;2022-09-09T04:32:03;4.05;;;2.65;;
57858;SDS011;49153;45.568;11.894;2022-09-09T04:34:30;3.17;;;2.50;;
57858;SDS011;49153;45.568;11.894;2022-09-09T04:36:56;4.22;;;2.70;;
57858;SDS011;49153;45.568;11.894;2022-09-09T04:39:22;3.22;;;2.53;;
57858;SDS011;49153;45.568;11.894;2022-09-09T04:41:47;5.35;;;2.67;;
57858;SDS011;49153;45.568;11.894;2022-09-09T04:44:13;5.25;;;2.63;;
57858;SDS011;49153;45.568;11.894;2022-09-09T04:46:38;4.72;;;2.45;;
57858;SDS011;49153;45.568;11.894;2022-09-09T04:49:06;4.43;;;2.38;;
57858;SDS011;49153;45.568;11.894;2022-09-09T04:51:31;6.75;;;2.85;;
57858;SDS011;49153;45.568;11.894;2022-09-09T04:53:57;5.30;;;2.70;;
57858;SDS011;49153;45.568;11.894;2022-09-09T04:56:22;4.60;;;2.70;;
57858;SDS011;49153;45.568;11.894;2022-09-09T04:58:48;6.18;;;2.80;;
57858;SDS011;49153;45.568;11.894;2022-09-09T05:01:14;4.10;;;2.70;;
57858;SDS011;49153;45.568;11.894;2022-09-09T05:03:45;3.97;;;3.13;;
57858;SDS011;49153;45.568;11.894;2022-09-09T05:06:12;4.65;;;3.15;;
57858;SDS011;49153;45.568;11.894;2022-09-09T05:08:40;4.40;;;2.92;;
57858;SDS011;49153;45.568;11.894;2022-09-09T05:11:14;4.93;;;3.28;;
57858;SDS011;49153;45.568;11.894;2022-09-09T05:13:43;5.90;;;3.20;;
57858;SDS011;49153;45.568;11.894;2022-09-09T05:16:09;4.43;;;3.20;;
57858;SDS011;49153;45.568;11.894;2022-09-09T05:18:36;6.75;;;3.08;;
57858;SDS011;49153;45.568;11.894;2022-09-09T05:21:05;3.58;;;3.08;;
57858;SDS011;49153;45.568;11.894;2022-09-09T05:23:31;4.50;;;3.17;;
57858;SDS011;49153;45.568;11.894;2022-09-09T05:25:57;6.13;;;2.90;;
57858;SDS011;49153;45.568;11.894;2022-09-09T05:28:24;4.30;;;2.83;;
57858;SDS011;49153;45.568;11.894;2022-09-09T05:31:00;6.20;;;3.15;;
57858;SDS011;49153;45.568;11.894;2022-09-09T05:33:33;5.20;;;3.20;;
57858;SDS011;49153;45.568;11.894;2022-09-09T05:36:00;4.40;;;3.00;;
57858;SDS011;49153;45.568;11.894;2022-09-09T05:38:28;4.97;;;3.38;;
57858;SDS011;49153;45.568;11.894;2022-09-09T05:40:54;5.70;;;3.33;;
57858;SDS011;49153;45.568;11.894;2022-09-09T05:43:21;5.05;;;2.72;;
57858;SDS011;49153;45.568;11.894;2022-09-09T05:45:47;3.88;;;2.83;;
57858;SDS011;49153;45.568;11.894;2022-09-09T05:48:14;6.13;;;2.95;;
57858;SDS011;49153;45.568;11.894;2022-09-09T05:50:41;5.78;;;2.95;;
57858;SDS011;49153;45.568;11.894;2022-09-09T05:53:07;5.63;;;3.17;;
57858;SDS011;49153;45.568;11.894;2022-09-09T05:55:33;5.35;;;3.17;;
57858;SDS011;49153;45.568;11.894;2022-09-09T05:57:59;6.38;;;3.00;;
57858;SDS011;49153;45.568;11.894;2022-09-09T06:00:24;6.18;;;2.70;;
57858;SDS011;49153;45.568;11.894;2022-09-09T06:02:51;6.10;;;3.30;;
57858;SDS011;49153;45.568;11.894;2022-09-09T06:05:17;4.32;;;3.30;;
57858;SDS011;49153;45.568;11.894;2022-09-09T06:07:43;4.78;;;3.00;;
57858;SDS011;49153;45.568;11.894;2022-09-09T06:10:10;4.47;;;3.08;;
57858;SDS011;49153;45.568;11.894;2022-09-09T06:12:38;5.03;;;3.13;;
57858;SDS011;49153;45.568;11.894;2022-09-09T06:15:04;5.72;;;3.47;;
57858;SDS011;49153;45.568;11.894;2022-09-09T06:17:30;6.15;;;3.20;;
57858;SDS011;49153;45.568;11.894;2022-09-09T06:19:55;4.97;;;3.67;;
57858;SDS011;49153;45.568;11.894;2022-09-09T06:22:21;5.75;;;3.08;;
57858;SDS011;49153;45.568;11.894;2022-09-09T06:24:46;7.15;;;3.00;;
57858;SDS011;49153;45.568;11.894;2022-09-09T06:27:11;7.20;;;3.42;;
57858;SDS011;49153;45.568;11.894;2022-09-09T06:29:38;5.95;;;3.00;;
57858;SDS011;49153;45.568;11.894;2022-09-09T06:32:04;5.65;;;3.30;;
57858;SDS011;49153;45.568;11.894;2022-09-09T06:34:29;5.35;;;2.75;;
57858;SDS011;49153;45.568;11.894;2022-09-09T06:36:55;6.90;;;3.55;;
57858;SDS011;49153;45.568;11.894;2022-09-09T06:39:22;5.57;;;3.03;;
57858;SDS011;49153;45.568;11.894;2022-09-09T06:41:48;6.65;;;2.90;;
57858;SDS011;49153;45.568;11.894;2022-09-09T06:44:14;6.00;;;3.20;;
57858;SDS011;49153;45.568;11.894;2022-09-09T06:46:40;5.40;;;3.13;;
57858;SDS011;49153;45.568;11.894;2022-09-09T06:49:07;5.82;;;3.30;;
57858;SDS011;49153;45.568;11.894;2022-09-09T06:51:34;5.40;;;3.08;;
57858;SDS011;49153;45.568;11.894;2022-09-09T06:54:02;4.18;;;3.03;;
57858;SDS011;49153;45.568;11.894;2022-09-09T06:56:35;6.00;;;3.15;;
57858;SDS011;49153;45.568;11.894;2022-09-09T06:59:03;7.05;;;3.53;;
57858;SDS011;49153;45.568;11.894;2022-09-09T07:01:34;5.63;;;3.67;;
57858;SDS011;49153;45.568;11.894;2022-09-09T07:04:01;8.00;;;3.80;;
57858;SDS011;49153;45.568;11.894;2022-09-09T07:06:30;6.28;;;3.58;;
57858;SDS011;49153;45.568;11.894;2022-09-09T07:08:57;6.93;;;3.97;;
57858;SDS011;49153;45.568;11.894;2022-09-09T07:11:25;6.63;;;3.42;;
57858;SDS011;49153;45.568;11.894;2022-09-09T07:13:53;8.35;;;3.65;;
57858;SDS011;49153;45.568;11.894;2022-09-09T07:16:19;7.82;;;3.80;;
57858;SDS011;49153;45.568;11.894;2022-09-09T07:18:47;8.55;;;3.72;;
57858;SDS011;49153;45.568;11.894;2022-09-09T07:21:13;6.38;;;3.38;;
57858;SDS011;49153;45.568;11.894;2022-09-09T07:23:40;6.50;;;3.63;;
57858;SDS011;49153;45.568;11.894;2022-09-09T07:26:09;6.55;;;3.55;;
57858;SDS011;49153;45.568;11.894;2022-09-09T07:28:36;7.57;;;3.40;;
57858;SDS011;49153;45.568;11.894;2022-09-09T07:31:03;5.28;;;2.92;;
57858;SDS011;49153;45.568;11.894;2022-09-09T07:33:30;4.97;;;3.22;;
57858;SDS011;49153;45.568;11.894;2022-09-09T07:36:18;7.05;;;3.10;;
57858;SDS011;49153;45.568;11.894;2022-09-09T07:38:52;5.78;;;2.90;;
57858;SDS011;49153;45.568;11.894;2022-09-09T07:43:50;5.28;;;2.97;;
57858;SDS011;49153;45.568;11.894;2022-09-09T07:46:17;5.18;;;2.80;;
57858;SDS011;49153;45.568;11.894;2022-09-09T07:48:45;5.57;;;2.60;;
57858;SDS011;49153;45.568;11.894;2022-09-09T07:51:15;6.32;;;2.80;;
57858;SDS011;49153;45.568;11.894;2022-09-09T07:53:43;6.03;;;2.70;;
57858;SDS011;49153;45.568;11.894;2022-09-09T07:56:10;4.95;;;2.75;;
57858;SDS011;49153;45.568;11.894;2022-09-09T07:58:41;6.00;;;3.00;;
57858;SDS011;49153;45.568;11.894;2022-09-09T08:01:10;7.03;;;2.90;;
57858;SDS011;49153;45.568;11.894;2022-09-09T08:03:44;4.35;;;2.67;;
57858;SDS011;49153;45.568;11.894;2022-09-09T08:06:11;4.55;;;2.70;;
57858;SDS011;49153;45.568;11.894;2022-09-09T08:08:37;3.95;;;2.70;;
57858;SDS011;49153;45.568;11.894;2022-09-09T08:11:07;5.82;;;2.50;;
57858;SDS011;49153;45.568;11.894;2022-09-09T08:13:41;6.82;;;2.67;;
57858;SDS011;49153;45.568;11.894;2022-09-09T08:16:09;4.95;;;2.63;;
57858;SDS011;49153;45.568;11.894;2022-09-09T08:18:39;5.75;;;2.50;;
57858;SDS011;49153;45.568;11.894;2022-09-09T08:21:12;4.32;;;2.58;;
57858;SDS011;49153;45.568;11.894;2022-09-09T08:23:39;7.13;;;2.95;;
57858;SDS011;49153;45.568;11.894;2022-09-09T08:26:10;7.45;;;2.70;;
57858;SDS011;49153;45.568;11.894;2022-09-09T08:28:37;5.43;;;2.35;;
57858;SDS011;49153;45.568;11.894;2022-09-09T08:31:08;6.20;;;2.50;;
57858;SDS011;49153;45.568;11.894;2022-09-09T08:33:35;7.70;;;2.20;;
57858;SDS011;49153;45.568;11.894;2022-09-09T08:36:03;3.88;;;2.17;;
57858;SDS011;49153;45.568;11.894;2022-09-09T08:38:29;7.53;;;2.20;;
57858;SDS011;49153;45.568;11.894;2022-09-09T08:40:56;5.30;;;1.98;;
57858;SDS011;49153;45.568;11.894;2022-09-09T08:43:32;6.28;;;2.08;;
57858;SDS011;49153;45.568;11.894;2022-09-09T08:51:27;4.57;;;2.35;;
57858;SDS011;49153;45.568;11.894;2022-09-09T08:53:55;6.72;;;2.28;;
57858;SDS011;49153;45.568;11.894;2022-09-09T08:56:25;4.13;;;2.10;;
57858;SDS011;49153;45.568;11.894;2022-09-09T08:58:53;5.70;;;1.98;;
57858;SDS011;49153;45.568;11.894;2022-09-09T09:09:52;5.13;;;2.10;;
57858;SDS011;49153;45.568;11.894;2022-09-09T09:12:28;4.25;;;1.90;;
57858;SDS011;49153;45.568;11.894;2022-09-09T09:14:57;3.90;;;2.05;;
57858;SDS011;49153;45.568;11.894;2022-09-09T09:17:25;4.65;;;2.22;;
57858;SDS011;49153;45.568;11.894;2022-09-09T09:19:53;4.93;;;2.33;;
57858;SDS011;49153;45.568;11.894;2022-09-09T09:22:19;4.38;;;2.20;;
57858;SDS011;49153;45.568;11.894;2022-09-09T09:30:00;2.92;;;1.88;;
57858;SDS011;49153;45.568;11.894;2022-09-09T09:32:31;3.45;;;2.10;;
57858;SDS011;49153;45.568;11.894;2022-09-09T09:34:59;3.83;;;2.17;;
57858;SDS011;49153;45.568;11.894;2022-09-09T09:37:32;3.05;;;1.90;;
57858;SDS011;49153;45.568;11.894;2022-09-09T09:40:13;2.45;;;1.73;;
57858;SDS011;49153;45.568;11.894;2022-09-09T09:42:48;6.80;;;2.13;;
57858;SDS011;49153;45.568;11.894;2022-09-09T09:47:46;5.43;;;2.25;;
57858;SDS011;49153;45.568;11.894;2022-09-09T09:50:22;6.40;;;2.20;;
57858;SDS011;49153;45.568;11.894;2022-09-09T09:52:54;4.47;;;2.33;;
57858;SDS011;49153;45.568;11.894;2022-09-09T09:55:22;6.00;;;2.28;;
57858;SDS011;49153;45.568;11.894;2022-09-09T09:57:49;3.97;;;2.28;;
57858;SDS011;49153;45.568;11.894;2022-09-09T10:00:19;4.72;;;2.30;;
57858;SDS011;49153;45.568;11.894;2022-09-09T10:02:46;7.28;;;2.20;;
57858;SDS011;49153;45.568;11.894;2022-09-09T10:07:40;2.97;;;1.98;;
57858;SDS011;49153;45.568;11.894;2022-09-09T10:10:08;4.90;;;2.60;;
57858;SDS011;49153;45.568;11.894;2022-09-09T10:15:41;6.03;;;2.40;;
57858;SDS011;49153;45.568;11.894;2022-09-09T10:21:39;3.58;;;2.40;;
57858;SDS011;49153;45.568;11.894;2022-09-09T10:33:32;4.35;;;2.22;;
57858;SDS011;49153;45.568;11.894;2022-09-09T10:36:13;3.20;;;2.35;;
57858;SDS011;49153;45.568;11.894;2022-09-09T10:43:40;3.80;;;2.50;;
57858;SDS011;49153;45.568;11.894;2022-09-09T10:49:34;3.50;;;2.10;;
57858;SDS011;49153;45.568;11.894;2022-09-09T10:52:32;4.00;;;2.30;;
57858;SDS011;49153;45.568;11.894;2022-09-09T10:55:00;5.97;;;2.28;;
57858;SDS011;49153;45.568;11.894;2022-09-09T11:00:13;3.38;;;2.28;;
57858;SDS011;49153;45.568;11.894;2022-09-09T11:02:39;5.85;;;2.50;;
57858;SDS011;49153;45.568;11.894;2022-09-09T11:05:14;4.05;;;2.05;;
57858;SDS011;49153;45.568;11.894;2022-09-09T11:10:25;4.40;;;2.45;;
57858;SDS011;49153;45.568;11.894;2022-09-09T11:12:53;3.97;;;2.05;;
57858;SDS011;49153;45.568;11.894;2022-09-09T11:15:45;2.83;;;1.90;;
57858;SDS011;49153;45.568;11.894;2022-09-09T11:18:16;3.97;;;2.10;;
57858;SDS011;49153;45.568;11.894;2022-09-09T11:20:44;4.03;;;2.20;;
57858;SDS011;49153;45.568;11.894;2022-09-09T11:23:23;4.03;;;2.05;;
57858;SDS011;49153;45.568;11.894;2022-09-09T11:26:24;5.65;;;2.40;;
57858;SDS011;49153;45.568;11.894;2022-09-09T11:40:23;3.75;;;2.28;;
57858;SDS011;49153;45.568;11.894;2022-09-09T11:43:01;6.10;;;2.28;;
57858;SDS011;49153;45.568;11.894;2022-09-09T11:45:30;3.03;;;2.25;;
57858;SDS011;49153;45.568;11.894;2022-09-09T11:47:59;2.90;;;2.10;;
57858;SDS011;49153;45.568;11.894;2022-09-09T11:53:02;3.17;;;2.30;;
57858;SDS011;49153;45.568;11.894;2022-09-09T11:55:30;3.13;;;2.10;;
57858;SDS011;49153;45.568;11.894;2022-09-09T12:08:51;3.47;;;2.10;;
57858;SDS011;49153;45.568;11.894;2022-09-09T12:11:27;3.80;;;2.13;;
57858;SDS011;49153;45.568;11.894;2022-09-09T12:13:57;2.75;;;1.85;;
57858;SDS011;49153;45.568;11.894;2022-09-09T12:16:42;3.38;;;1.92;;
57858;SDS011;49153;45.568;11.894;2022-09-09T12:19:15;4.55;;;2.35;;
57858;SDS011;49153;45.568;11.894;2022-09-09T12:27:45;5.30;;;2.20;;
57858;SDS011;49153;45.568;11.894;2022-09-09T12:30:34;4.72;;;2.22;;
57858;SDS011;49153;45.568;11.894;2022-09-09T12:33:08;4.10;;;2.30;;
57858;SDS011;49153;45.568;11.894;2022-09-09T12:35:41;7.53;;;2.38;;
57858;SDS011;49153;45.568;11.894;2022-09-09T12:38:10;3.47;;;2.10;;
57858;SDS011;49153;45.568;11.894;2022-09-09T12:40:40;3.28;;;1.90;;
57858;SDS011;49153;45.568;11.894;2022-09-09T12:43:19;4.53;;;2.00;;
57858;SDS011;49153;45.568;11.894;2022-09-09T12:45:48;6.30;;;1.95;;
57858;SDS011;49153;45.568;11.894;2022-09-09T12:48:16;4.28;;;2.20;;
57858;SDS011;49153;45.568;11.894;2022-09-09T12:50:45;6.90;;;2.47;;
57858;SDS011;49153;45.568;11.894;2022-09-09T12:55:52;8.77;;;2.45;;
57858;SDS011;49153;45.568;11.894;2022-09-09T12:58:32;5.43;;;3.08;;
57858;SDS011;49153;45.568;11.894;2022-09-09T13:00:58;7.07;;;3.70;;
57858;SDS011;49153;45.568;11.894;2022-09-09T13:03:25;3.92;;;2.33;;
57858;SDS011;49153;45.568;11.894;2022-09-09T13:05:52;3.58;;;1.52;;
57858;SDS011;49153;45.568;11.894;2022-09-09T13:08:18;15.02;;;2.95;;
57858;SDS011;49153;45.568;11.894;2022-09-09T13:10:51;9.20;;;2.08;;
57858;SDS011;49153;45.568;11.894;2022-09-09T13:16:00;4.20;;;1.27;;
57858;SDS011;49153;45.568;11.894;2022-09-09T13:18:36;1.80;;;1.10;;
57858;SDS011;49153;45.568;11.894;2022-09-09T13:21:05;3.83;;;1.13;;
57858;SDS011;49153;45.568;11.894;2022-09-09T13:23:35;3.33;;;1.00;;
57858;SDS011;49153;45.568;11.894;2022-09-09T13:26:03;1.73;;;0.90;;
57858;SDS011;49153;45.568;11.894;2022-09-09T13:28:31;2.25;;;1.00;;
57858;SDS011;49153;45.568;11.894;2022-09-09T13:33:30;2.83;;;0.70;;
57858;SDS011;49153;45.568;11.894;2022-09-09T13:35:59;2.28;;;0.73;;
57858;SDS011;49153;45.568;11.894;2022-09-09T13:38:31;1.58;;;0.80;;
57858;SDS011;49153;45.568;11.894;2022-09-09T13:41:01;3.00;;;0.70;;
57858;SDS011;49153;45.568;11.894;2022-09-09T13:43:36;4.80;;;1.10;;
57858;SDS011;49153;45.568;11.894;2022-09-09T13:46:03;1.83;;;1.02;;
57858;SDS011;49153;45.568;11.894;2022-09-09T13:48:31;4.25;;;1.00;;
57858;SDS011;49153;45.568;11.894;2022-09-09T13:51:03;2.50;;;1.10;;
57858;SDS011;49153;45.568;11.894;2022-09-09T13:53:30;3.85;;;1.23;;
57858;SDS011;49153;45.568;11.894;2022-09-09T13:55:56;4.43;;;1.50;;
57858;SDS011;49153;45.568;11.894;2022-09-09T13:58:23;3.85;;;1.48;;
57858;SDS011;49153;45.568;11.894;2022-09-09T14:00:50;4.03;;;1.90;;
57858;SDS011;49153;45.568;11.894;2022-09-09T14:03:17;2.45;;;1.50;;
57858;SDS011;49153;45.568;11.894;2022-09-09T14:05:43;3.72;;;1.67;;
57858;SDS011;49153;45.568;11.894;2022-09-09T14:08:11;4.57;;;2.00;;
57858;SDS011;49153;45.568;11.894;2022-09-09T14:10:41;3.15;;;1.88;;
57858;SDS011;49153;45.568;11.894;2022-09-09T14:13:06;4.50;;;1.58;;
57858;SDS011;49153;45.568;11.894;2022-09-09T14:15:33;3.38;;;1.20;;
57858;SDS011;49153;45.568;11.894;2022-09-09T14:17:58;3.25;;;1.20;;
57858;SDS011;49153;45.568;11.894;2022-09-09T14:20:24;1.65;;;0.85;;
57858;SDS011;49153;45.568;11.894;2022-09-09T14:22:49;1.38;;;0.90;;
57858;SDS011;49153;45.568;11.894;2022-09-09T14:25:15;1.23;;;0.77;;
57858;SDS011;49153;45.568;11.894;2022-09-09T14:27:40;1.90;;;1.10;;
57858;SDS011;49153;45.568;11.894;2022-09-09T14:30:07;2.78;;;1.20;;
57858;SDS011;49153;45.568;11.894;2022-09-09T14:32:33;1.88;;;1.30;;
57858;SDS011;49153;45.568;11.894;2022-09-09T14:34:59;2.00;;;1.05;;
57858;SDS011;49153;45.568;11.894;2022-09-09T14:37:24;1.33;;;0.88;;
57858;SDS011;49153;45.568;11.894;2022-09-09T14:39:50;1.13;;;0.90;;
57858;SDS011;49153;45.568;11.894;2022-09-09T14:42:16;3.13;;;1.05;;
57858;SDS011;49153;45.568;11.894;2022-09-09T14:44:41;3.17;;;1.38;;
57858;SDS011;49153;45.568;11.894;2022-09-09T14:47:07;1.92;;;1.10;;
57858;SDS011;49153;45.568;11.894;2022-09-09T14:49:33;2.45;;;1.42;;
57858;SDS011;49153;45.568;11.894;2022-09-09T14:51:59;1.20;;;1.10;;
57858;SDS011;49153;45.568;11.894;2022-09-09T14:54:25;2.00;;;1.40;;
57858;SDS011;49153;45.568;11.894;2022-09-09T14:56:50;2.03;;;1.52;;
57858;SDS011;49153;45.568;11.894;2022-09-09T14:59:16;2.25;;;1.55;;
57858;SDS011;49153;45.568;11.894;2022-09-09T15:01:41;3.15;;;1.67;;
57858;SDS011;49153;45.568;11.894;2022-09-09T15:04:07;3.38;;;1.52;;
57858;SDS011;49153;45.568;11.894;2022-09-09T15:06:33;2.80;;;1.60;;
57858;SDS011;49153;45.568;11.894;2022-09-09T15:09:01;3.08;;;1.48;;
57858;SDS011;49153;45.568;11.894;2022-09-09T15:11:29;5.10;;;1.55;;
57858;SDS011;49153;45.568;11.894;2022-09-09T15:13:58;3.38;;;1.80;;
57858;SDS011;49153;45.568;11.894;2022-09-09T15:16:24;4.38;;;1.80;;
57858;SDS011;49153;45.568;11.894;2022-09-09T15:18:52;2.22;;;1.70;;
57858;SDS011;49153;45.568;11.894;2022-09-09T15:21:19;3.53;;;1.70;;
57858;SDS011;49153;45.568;11.894;2022-09-09T15:23:47;4.57;;;1.70;;
57858;SDS011;49153;45.568;11.894;2022-09-09T15:26:13;3.08;;;1.73;;
57858;SDS011;49153;45.568;11.894;2022-09-09T15:28:40;4.55;;;1.55;;
57858;SDS011;49153;45.568;11.894;2022-09-09T15:31:14;2.28;;;1.40;;
57858;SDS011;49153;45.568;11.894;2022-09-09T15:33:50;1.63;;;1.23;;
57858;SDS011;49153;45.568;11.894;2022-09-09T15:36:21;2.67;;;1.52;;
57858;SDS011;49153;45.568;11.894;2022-09-09T15:38:48;3.78;;;1.40;;
57858;SDS011;49153;45.568;11.894;2022-09-09T15:41:14;3.65;;;1.70;;
57858;SDS011;49153;45.568;11.894;2022-09-09T15:43:46;1.52;;;1.42;;
57858;SDS011;49153;45.568;11.894;2022-09-09T15:48:53;3.10;;;1.40;;
57858;SDS011;49153;45.568;11.894;2022-09-09T15:51:20;2.95;;;1.27;;
57858;SDS011;49153;45.568;11.894;2022-09-09T15:53:47;3.03;;;1.50;;
57858;SDS011;49153;45.568;11.894;2022-09-09T15:56:13;3.03;;;1.40;;
57858;SDS011;49153;45.568;11.894;2022-09-09T15:58:38;3.63;;;1.40;;
57858;SDS011;49153;45.568;11.894;2022-09-09T16:01:04;1.83;;;1.23;;
57858;SDS011;49153;45.568;11.894;2022-09-09T16:03:35;2.97;;;1.40;;
57858;SDS011;49153;45.568;11.894;2022-09-09T16:06:02;2.88;;;1.27;;
57858;SDS011;49153;45.568;11.894;2022-09-09T16:08:35;5.05;;;1.60;;
57858;SDS011;49153;45.568;11.894;2022-09-09T16:13:35;3.08;;;1.40;;
57858;SDS011;49153;45.568;11.894;2022-09-09T16:18:36;4.40;;;1.40;;
57858;SDS011;49153;45.568;11.894;2022-09-09T16:21:03;1.88;;;1.20;;
57858;SDS011;49153;45.568;11.894;2022-09-09T16:23:30;2.90;;;1.25;;
57858;SDS011;49153;45.568;11.894;2022-09-09T16:26:01;2.00;;;1.35;;
57858;SDS011;49153;45.568;11.894;2022-09-09T16:28:27;2.33;;;1.33;;
57858;SDS011;49153;45.568;11.894;2022-09-09T16:30:54;4.03;;;1.23;;
57858;SDS011;49153;45.568;11.894;2022-09-09T16:33:19;3.63;;;1.35;;
57858;SDS011;49153;45.568;11.894;2022-09-09T16:35:45;3.60;;;1.65;;
57858;SDS011;49153;45.568;11.894;2022-09-09T16:38:11;2.30;;;1.42;;
57858;SDS011;49153;45.568;11.894;2022-09-09T16:40:37;2.85;;;1.50;;
57858;SDS011;49153;45.568;11.894;2022-09-09T16:43:05;3.15;;;1.60;;
57858;SDS011;49153;45.568;11.894;2022-09-09T16:45:31;4.10;;;1.80;;
57858;SDS011;49153;45.568;11.894;2022-09-09T16:47:57;2.97;;;1.55;;
57858;SDS011;49153;45.568;11.894;2022-09-09T16:50:24;3.15;;;1.50;;
57858;SDS011;49153;45.568;11.894;2022-09-09T16:52:50;3.95;;;2.28;;
57858;SDS011;49153;45.568;11.894;2022-09-09T16:55:17;4.82;;;1.90;;
57858;SDS011;49153;45.568;11.894;2022-09-09T16:57:45;2.42;;;1.80;;
57858;SDS011;49153;45.568;11.894;2022-09-09T17:00:13;3.15;;;1.52;;
57858;SDS011;49153;45.568;11.894;2022-09-09T17:02:39;3.20;;;1.50;;
57858;SDS011;49153;45.568;11.894;2022-09-09T17:05:04;2.55;;;1.60;;
57858;SDS011;49153;45.568;11.894;2022-09-09T17:07:30;3.47;;;1.60;;
57858;SDS011;49153;45.568;11.894;2022-09-09T17:09:57;3.55;;;1.88;;
57858;SDS011;49153;45.568;11.894;2022-09-09T17:12:22;2.25;;;1.40;;
57858;SDS011;49153;45.568;11.894;2022-09-09T17:14:48;3.33;;;1.77;;
57858;SDS011;49153;45.568;11.894;2022-09-09T17:17:14;2.92;;;1.55;;
57858;SDS011;49153;45.568;11.894;2022-09-09T17:19:40;3.15;;;1.60;;